sensor_id;sensor_type;location;lat;lon;timestamp;temperature;humidity
9414;DHT22;4746;35.664;139.738;2023-11-21T00:00:46;12.30;93.90
9414;DHT22;4746;35.664;139.738;2023-11-21T00:03:13;12.40;93.80
9414;DHT22;4746;35.664;139.738;2023-11-21T00:05:45;12.40;93.70
9414;DHT22;4746;35.664;139.738;2023-11-21T00:08:12;12.40;93.70
9414;DHT22;4746;35.664;139.738;2023-11-21T00:10:42;12.50;93.70
9414;DHT22;4746;35.664;139.738;2023-11-21T00:13:10;12.50;93.60
9414;DHT22;4746;35.664;139.738;2023-11-21T00:15:38;12.50;93.40
9414;DHT22;4746;35.664;139.738;2023-11-21T00:18:06;12.50;93.50
9414;DHT22;4746;35.664;139.738;2023-11-21T00:20:34;12.60;93.40
9414;DHT22;4746;35.664;139.738;2023-11-21T00:23:02;12.70;93.20
9414;DHT22;4746;35.664;139.738;2023-11-21T00:25:30;12.70;93.00
9414;DHT22;4746;35.664;139.738;2023-11-21T00:27:59;12.70;93.10
9414;DHT22;4746;35.664;139.738;2023-11-21T00:30:28;12.70;93.30
9414;DHT22;4746;35.664;139.738;2023-11-21T00:32:57;12.80;93.10
9414;DHT22;4746;35.664;139.738;2023-11-21T00:35:25;12.80;93.10
9414;DHT22;4746;35.664;139.738;2023-11-21T00:37:52;12.90;92.90
9414;DHT22;4746;35.664;139.738;2023-11-21T00:40:20;13.00;93.10
9414;DHT22;4746;35.664;139.738;2023-11-21T00:42:48;13.00;93.10
9414;DHT22;4746;35.664;139.738;2023-11-21T00:45:16;13.10;93.20
9414;DHT22;4746;35.664;139.738;2023-11-21T00:47:43;13.20;93.20
9414;DHT22;4746;35.664;139.738;2023-11-21T00:50:11;13.30;93.10
9414;DHT22;4746;35.664;139.738;2023-11-21T00:52:39;13.40;93.20
9414;DHT22;4746;35.664;139.738;2023-11-21T00:55:07;13.60;92.90
9414;DHT22;4746;35.664;139.738;2023-11-21T00:57:36;13.60;92.60
9414;DHT22;4746;35.664;139.738;2023-11-21T01:00:04;13.80;92.80
9414;DHT22;4746;35.664;139.738;2023-11-21T01:02:44;13.90;92.40
9414;DHT22;4746;35.664;139.738;2023-11-21T01:05:11;14.00;92.00
9414;DHT22;4746;35.664;139.738;2023-11-21T01:07:40;14.20;91.50
9414;DHT22;4746;35.664;139.738;2023-11-21T01:10:08;14.20;90.80
9414;DHT22;4746;35.664;139.738;2023-11-21T01:12:38;14.30;90.50
9414;DHT22;4746;35.664;139.738;2023-11-21T01:15:08;14.40;90.10
9414;DHT22;4746;35.664;139.738;2023-11-21T01:17:38;14.40;89.30
9414;DHT22;4746;35.664;139.738;2023-11-21T01:20:07;14.50;88.40
9414;DHT22;4746;35.664;139.738;2023-11-21T01:22:39;14.60;87.60
9414;DHT22;4746;35.664;139.738;2023-11-21T01:25:07;14.70;87.40
9414;DHT22;4746;35.664;139.738;2023-11-21T01:27:35;14.70;85.80
9414;DHT22;4746;35.664;139.738;2023-11-21T01:30:03;14.90;86.20
9414;DHT22;4746;35.664;139.738;2023-11-21T01:32:33;15.00;85.60
9414;DHT22;4746;35.664;139.738;2023-11-21T01:35:01;15.20;84.00
9414;DHT22;4746;35.664;139.738;2023-11-21T01:37:29;15.30;83.20
9414;DHT22;4746;35.664;139.738;2023-11-21T01:39:56;15.40;79.60
9414;DHT22;4746;35.664;139.738;2023-11-21T01:42:26;15.40;78.70
9414;DHT22;4746;35.664;139.738;2023-11-21T01:44:55;15.50;75.60
9414;DHT22;4746;35.664;139.738;2023-11-21T01:47:23;15.40;77.10
9414;DHT22;4746;35.664;139.738;2023-11-21T01:49:50;15.50;76.10
9414;DHT22;4746;35.664;139.738;2023-11-21T01:52:19;15.60;76.40
9414;DHT22;4746;35.664;139.738;2023-11-21T01:54:47;15.70;76.60
9414;DHT22;4746;35.664;139.738;2023-11-21T01:57:14;15.90;75.00
9414;DHT22;4746;35.664;139.738;2023-11-21T01:59:42;16.10;74.10
9414;DHT22;4746;35.664;139.738;2023-11-21T02:02:14;16.30;74.00
9414;DHT22;4746;35.664;139.738;2023-11-21T02:04:42;16.60;73.80
9414;DHT22;4746;35.664;139.738;2023-11-21T02:07:09;16.70;71.70
9414;DHT22;4746;35.664;139.738;2023-11-21T02:09:37;16.90;70.20
9414;DHT22;4746;35.664;139.738;2023-11-21T02:12:08;17.10;68.60
9414;DHT22;4746;35.664;139.738;2023-11-21T02:14:39;17.30;66.60
9414;DHT22;4746;35.664;139.738;2023-11-21T02:17:06;17.50;64.60
9414;DHT22;4746;35.664;139.738;2023-11-21T02:19:34;17.70;63.90
9414;DHT22;4746;35.664;139.738;2023-11-21T02:22:02;17.80;62.80
9414;DHT22;4746;35.664;139.738;2023-11-21T02:24:32;17.90;60.60
9414;DHT22;4746;35.664;139.738;2023-11-21T02:27:00;17.90;60.00
9414;DHT22;4746;35.664;139.738;2023-11-21T02:29:27;18.00;59.90
9414;DHT22;4746;35.664;139.738;2023-11-21T02:31:56;17.90;59.00
9414;DHT22;4746;35.664;139.738;2023-11-21T02:34:23;18.10;58.40
9414;DHT22;4746;35.664;139.738;2023-11-21T02:36:51;18.20;58.50
9414;DHT22;4746;35.664;139.738;2023-11-21T02:39:18;18.30;58.10
9414;DHT22;4746;35.664;139.738;2023-11-21T02:41:50;18.40;57.90
9414;DHT22;4746;35.664;139.738;2023-11-21T02:44:17;18.50;57.30
9414;DHT22;4746;35.664;139.738;2023-11-21T02:46:47;18.60;57.00
9414;DHT22;4746;35.664;139.738;2023-11-21T02:49:14;18.50;55.40
9414;DHT22;4746;35.664;139.738;2023-11-21T02:51:42;18.30;55.40
9414;DHT22;4746;35.664;139.738;2023-11-21T02:54:10;18.30;55.60
9414;DHT22;4746;35.664;139.738;2023-11-21T02:56:39;18.40;56.00
9414;DHT22;4746;35.664;139.738;2023-11-21T02:59:06;18.40;56.80
9414;DHT22;4746;35.664;139.738;2023-11-21T03:01:34;18.40;57.10
9414;DHT22;4746;35.664;139.738;2023-11-21T03:04:01;18.30;57.40
9414;DHT22;4746;35.664;139.738;2023-11-21T03:06:31;18.40;57.30
9414;DHT22;4746;35.664;139.738;2023-11-21T03:08:58;18.50;57.40
9414;DHT22;4746;35.664;139.738;2023-11-21T03:11:26;18.60;57.10
9414;DHT22;4746;35.664;139.738;2023-11-21T03:13:54;18.80;56.30
9414;DHT22;4746;35.664;139.738;2023-11-21T03:16:23;18.80;55.70
9414;DHT22;4746;35.664;139.738;2023-11-21T03:18:53;18.70;54.60
9414;DHT22;4746;35.664;139.738;2023-11-21T03:21:21;18.70;54.90
9414;DHT22;4746;35.664;139.738;2023-11-21T03:23:51;18.90;54.70
9414;DHT22;4746;35.664;139.738;2023-11-21T03:26:19;19.30;54.80
9414;DHT22;4746;35.664;139.738;2023-11-21T03:28:46;19.40;54.60
9414;DHT22;4746;35.664;139.738;2023-11-21T03:31:13;19.30;54.60
9414;DHT22;4746;35.664;139.738;2023-11-21T03:33:45;19.30;54.40
9414;DHT22;4746;35.664;139.738;2023-11-21T03:36:14;19.30;54.70
9414;DHT22;4746;35.664;139.738;2023-11-21T03:38:42;19.30;54.80
9414;DHT22;4746;35.664;139.738;2023-11-21T03:41:09;19.30;55.10
9414;DHT22;4746;35.664;139.738;2023-11-21T03:43:37;19.50;55.40
9414;DHT22;4746;35.664;139.738;2023-11-21T03:46:05;20.10;55.60
9414;DHT22;4746;35.664;139.738;2023-11-21T03:48:33;20.60;55.10
9414;DHT22;4746;35.664;139.738;2023-11-21T03:51:01;21.20;54.20
9414;DHT22;4746;35.664;139.738;2023-11-21T03:53:29;21.70;53.80
9414;DHT22;4746;35.664;139.738;2023-11-21T03:55:58;22.20;52.90
9414;DHT22;4746;35.664;139.738;2023-11-21T03:58:25;22.70;51.80
9414;DHT22;4746;35.664;139.738;2023-11-21T04:00:53;23.30;51.40
9414;DHT22;4746;35.664;139.738;2023-11-21T04:03:20;23.80;49.30
9414;DHT22;4746;35.664;139.738;2023-11-21T04:05:48;24.30;49.60
9414;DHT22;4746;35.664;139.738;2023-11-21T04:08:16;24.80;47.90
9414;DHT22;4746;35.664;139.738;2023-11-21T04:10:43;25.10;47.10
9414;DHT22;4746;35.664;139.738;2023-11-21T04:13:11;25.50;45.60
9414;DHT22;4746;35.664;139.738;2023-11-21T04:15:40;25.80;44.00
9414;DHT22;4746;35.664;139.738;2023-11-21T04:18:10;26.20;43.40
9414;DHT22;4746;35.664;139.738;2023-11-21T04:20:37;26.50;41.50
9414;DHT22;4746;35.664;139.738;2023-11-21T04:23:06;26.70;40.60
9414;DHT22;4746;35.664;139.738;2023-11-21T04:25:36;27.00;39.20
9414;DHT22;4746;35.664;139.738;2023-11-21T04:28:04;27.50;38.80
9414;DHT22;4746;35.664;139.738;2023-11-21T04:30:31;27.70;37.50
9414;DHT22;4746;35.664;139.738;2023-11-21T04:32:59;27.90;36.90
9414;DHT22;4746;35.664;139.738;2023-11-21T04:35:29;28.00;35.40
9414;DHT22;4746;35.664;139.738;2023-11-21T04:37:56;28.30;35.20
9414;DHT22;4746;35.664;139.738;2023-11-21T04:40:26;28.20;34.20
9414;DHT22;4746;35.664;139.738;2023-11-21T04:42:53;28.40;34.30
9414;DHT22;4746;35.664;139.738;2023-11-21T04:45:23;28.50;33.40
9414;DHT22;4746;35.664;139.738;2023-11-21T04:47:50;28.60;33.10
9414;DHT22;4746;35.664;139.738;2023-11-21T04:50:19;28.80;33.20
9414;DHT22;4746;35.664;139.738;2023-11-21T04:52:46;29.10;32.10
9414;DHT22;4746;35.664;139.738;2023-11-21T04:55:14;29.20;31.30
9414;DHT22;4746;35.664;139.738;2023-11-21T04:57:41;29.40;31.50
9414;DHT22;4746;35.664;139.738;2023-11-21T05:00:12;29.50;31.50
9414;DHT22;4746;35.664;139.738;2023-11-21T05:02:42;29.50;30.90
9414;DHT22;4746;35.664;139.738;2023-11-21T05:05:10;29.60;30.80
9414;DHT22;4746;35.664;139.738;2023-11-21T05:07:39;29.50;30.70
9414;DHT22;4746;35.664;139.738;2023-11-21T05:10:08;29.60;30.90
9414;DHT22;4746;35.664;139.738;2023-11-21T05:12:38;29.80;30.30
9414;DHT22;4746;35.664;139.738;2023-11-21T05:15:09;30.00;30.40
9414;DHT22;4746;35.664;139.738;2023-11-21T05:17:41;30.10;30.00
9414;DHT22;4746;35.664;139.738;2023-11-21T05:20:13;30.10;29.70
9414;DHT22;4746;35.664;139.738;2023-11-21T05:22:44;30.10;29.30
9414;DHT22;4746;35.664;139.738;2023-11-21T05:25:12;29.90;29.20
9414;DHT22;4746;35.664;139.738;2023-11-21T05:27:39;30.10;29.50
9414;DHT22;4746;35.664;139.738;2023-11-21T05:30:07;30.30;28.90
9414;DHT22;4746;35.664;139.738;2023-11-21T05:32:45;30.60;28.80
9414;DHT22;4746;35.664;139.738;2023-11-21T05:35:13;30.70;28.00
9414;DHT22;4746;35.664;139.738;2023-11-21T05:37:42;30.90;28.20
9414;DHT22;4746;35.664;139.738;2023-11-21T05:40:12;31.00;28.10
9414;DHT22;4746;35.664;139.738;2023-11-21T05:42:44;31.20;27.90
9414;DHT22;4746;35.664;139.738;2023-11-21T05:45:12;31.40;27.60
9414;DHT22;4746;35.664;139.738;2023-11-21T05:47:43;31.50;27.50
9414;DHT22;4746;35.664;139.738;2023-11-21T05:50:13;31.30;27.50
9414;DHT22;4746;35.664;139.738;2023-11-21T05:52:44;31.40;27.30
9414;DHT22;4746;35.664;139.738;2023-11-21T05:55:12;31.20;27.60
9414;DHT22;4746;35.664;139.738;2023-11-21T05:57:42;31.20;27.10
9414;DHT22;4746;35.664;139.738;2023-11-21T06:00:13;31.00;27.50
9414;DHT22;4746;35.664;139.738;2023-11-21T06:02:52;31.10;27.40
9414;DHT22;4746;35.664;139.738;2023-11-21T06:05:23;31.10;27.30
9414;DHT22;4746;35.664;139.738;2023-11-21T06:07:52;31.00;27.40
9414;DHT22;4746;35.664;139.738;2023-11-21T06:10:25;31.00;27.70
9414;DHT22;4746;35.664;139.738;2023-11-21T06:12:54;30.30;28.20
9414;DHT22;4746;35.664;139.738;2023-11-21T06:15:22;29.80;28.50
9414;DHT22;4746;35.664;139.738;2023-11-21T06:17:50;28.90;29.50
9414;DHT22;4746;35.664;139.738;2023-11-21T06:20:21;28.30;30.30
9414;DHT22;4746;35.664;139.738;2023-11-21T06:22:50;27.90;31.00
9414;DHT22;4746;35.664;139.738;2023-11-21T06:25:18;27.50;31.70
9414;DHT22;4746;35.664;139.738;2023-11-21T06:27:47;27.20;32.40
9414;DHT22;4746;35.664;139.738;2023-11-21T06:30:15;27.10;32.90
9414;DHT22;4746;35.664;139.738;2023-11-21T06:32:46;27.00;33.40
9414;DHT22;4746;35.664;139.738;2023-11-21T06:35:14;26.90;33.50
9414;DHT22;4746;35.664;139.738;2023-11-21T06:37:41;26.90;33.90
9414;DHT22;4746;35.664;139.738;2023-11-21T06:40:14;26.90;34.10
9414;DHT22;4746;35.664;139.738;2023-11-21T06:42:41;26.90;34.40
9414;DHT22;4746;35.664;139.738;2023-11-21T06:45:10;26.60;34.80
9414;DHT22;4746;35.664;139.738;2023-11-21T06:47:39;26.40;35.30
9414;DHT22;4746;35.664;139.738;2023-11-21T06:50:06;26.30;35.50
9414;DHT22;4746;35.664;139.738;2023-11-21T06:52:34;26.20;35.70
9414;DHT22;4746;35.664;139.738;2023-11-21T06:55:04;26.00;36.20
9414;DHT22;4746;35.664;139.738;2023-11-21T06:57:34;25.70;36.80
9414;DHT22;4746;35.664;139.738;2023-11-21T07:00:02;25.20;37.40
9414;DHT22;4746;35.664;139.738;2023-11-21T07:02:30;24.50;38.50
9414;DHT22;4746;35.664;139.738;2023-11-21T07:05:00;24.00;39.60
9414;DHT22;4746;35.664;139.738;2023-11-21T07:07:29;23.40;40.80
9414;DHT22;4746;35.664;139.738;2023-11-21T07:09:57;23.00;41.80
9414;DHT22;4746;35.664;139.738;2023-11-21T07:12:30;22.60;43.30
9414;DHT22;4746;35.664;139.738;2023-11-21T07:14:58;22.10;45.20
9414;DHT22;4746;35.664;139.738;2023-11-21T07:17:25;21.70;47.70
9414;DHT22;4746;35.664;139.738;2023-11-21T07:19:53;21.20;50.30
9414;DHT22;4746;35.664;139.738;2023-11-21T07:22:21;20.80;53.30
9414;DHT22;4746;35.664;139.738;2023-11-21T07:24:50;20.50;56.30
9414;DHT22;4746;35.664;139.738;2023-11-21T07:27:18;20.30;60.00
9414;DHT22;4746;35.664;139.738;2023-11-21T07:29:46;20.10;65.30
9414;DHT22;4746;35.664;139.738;2023-11-21T07:32:14;19.90;68.20
9414;DHT22;4746;35.664;139.738;2023-11-21T07:34:43;19.70;76.00
9414;DHT22;4746;35.664;139.738;2023-11-21T07:37:11;19.50;78.50
9414;DHT22;4746;35.664;139.738;2023-11-21T07:39:38;19.40;85.10
9414;DHT22;4746;35.664;139.738;2023-11-21T07:42:08;19.20;89.90
9414;DHT22;4746;35.664;139.738;2023-11-21T07:44:44;19.10;93.70
9414;DHT22;4746;35.664;139.738;2023-11-21T07:47:13;18.90;95.70
9414;DHT22;4746;35.664;139.738;2023-11-21T07:49:41;18.80;96.90
9414;DHT22;4746;35.664;139.738;2023-11-21T07:52:10;18.70;99.10
9414;DHT22;4746;35.664;139.738;2023-11-21T07:54:38;18.60;99.90
9414;DHT22;4746;35.664;139.738;2023-11-21T07:57:05;18.50;99.90
9414;DHT22;4746;35.664;139.738;2023-11-21T07:59:33;18.40;99.90
9414;DHT22;4746;35.664;139.738;2023-11-21T08:02:01;18.30;99.90
9414;DHT22;4746;35.664;139.738;2023-11-21T08:04:29;18.20;99.90
9414;DHT22;4746;35.664;139.738;2023-11-21T08:06:58;18.20;99.90
9414;DHT22;4746;35.664;139.738;2023-11-21T08:09:25;18.10;99.90
9414;DHT22;4746;35.664;139.738;2023-11-21T08:11:53;18.10;99.90
9414;DHT22;4746;35.664;139.738;2023-11-21T08:14:21;18.10;99.90
9414;DHT22;4746;35.664;139.738;2023-11-21T08:16:53;17.90;99.90
9414;DHT22;4746;35.664;139.738;2023-11-21T08:19:25;17.90;99.90
9414;DHT22;4746;35.664;139.738;2023-11-21T08:21:53;17.80;99.90
9414;DHT22;4746;35.664;139.738;2023-11-21T08:24:21;17.80;99.90
9414;DHT22;4746;35.664;139.738;2023-11-21T08:26:49;17.70;99.90
9414;DHT22;4746;35.664;139.738;2023-11-21T08:29:18;17.70;99.90
9414;DHT22;4746;35.664;139.738;2023-11-21T08:31:46;17.60;99.90
9414;DHT22;4746;35.664;139.738;2023-11-21T08:34:13;17.60;99.90
9414;DHT22;4746;35.664;139.738;2023-11-21T08:36:44;17.40;99.90
9414;DHT22;4746;35.664;139.738;2023-11-21T08:39:12;17.30;99.90
9414;DHT22;4746;35.664;139.738;2023-11-21T08:41:45;17.30;99.90
9414;DHT22;4746;35.664;139.738;2023-11-21T08:44:12;17.20;99.90
9414;DHT22;4746;35.664;139.738;2023-11-21T08:46:40;17.20;99.90
9414;DHT22;4746;35.664;139.738;2023-11-21T08:49:08;17.20;99.90
9414;DHT22;4746;35.664;139.738;2023-11-21T08:51:35;17.20;99.90
9414;DHT22;4746;35.664;139.738;2023-11-21T08:54:03;17.10;99.90
9414;DHT22;4746;35.664;139.738;2023-11-21T08:56:34;17.10;99.90
9414;DHT22;4746;35.664;139.738;2023-11-21T08:59:02;17.00;99.90
9414;DHT22;4746;35.664;139.738;2023-11-21T09:01:30;17.00;99.90
9414;DHT22;4746;35.664;139.738;2023-11-21T09:03:59;17.00;99.90
9414;DHT22;4746;35.664;139.738;2023-11-21T09:06:26;16.90;99.90
9414;DHT22;4746;35.664;139.738;2023-11-21T09:08:56;16.90;99.90
9414;DHT22;4746;35.664;139.738;2023-11-21T09:11:24;16.80;99.90
9414;DHT22;4746;35.664;139.738;2023-11-21T09:13:57;16.90;99.90
9414;DHT22;4746;35.664;139.738;2023-11-21T09:16:26;16.80;99.90
9414;DHT22;4746;35.664;139.738;2023-11-21T09:18:53;16.80;99.90
9414;DHT22;4746;35.664;139.738;2023-11-21T09:21:21;16.80;99.90
9414;DHT22;4746;35.664;139.738;2023-11-21T09:23:49;16.70;99.90
9414;DHT22;4746;35.664;139.738;2023-11-21T09:26:17;16.70;99.90
9414;DHT22;4746;35.664;139.738;2023-11-21T09:28:45;16.70;99.90
9414;DHT22;4746;35.664;139.738;2023-11-21T09:31:15;16.70;99.90
9414;DHT22;4746;35.664;139.738;2023-11-21T09:33:43;16.70;99.90
9414;DHT22;4746;35.664;139.738;2023-11-21T09:36:14;16.70;99.90
9414;DHT22;4746;35.664;139.738;2023-11-21T09:38:41;16.70;99.90
9414;DHT22;4746;35.664;139.738;2023-11-21T09:41:23;16.80;99.90
9414;DHT22;4746;35.664;139.738;2023-11-21T09:44:03;16.80;99.90
9414;DHT22;4746;35.664;139.738;2023-11-21T09:46:38;16.80;99.90
9414;DHT22;4746;35.664;139.738;2023-11-21T09:49:13;16.80;99.90
9414;DHT22;4746;35.664;139.738;2023-11-21T09:51:46;16.70;99.90
9414;DHT22;4746;35.664;139.738;2023-11-21T09:54:15;16.80;99.90
9414;DHT22;4746;35.664;139.738;2023-11-21T09:56:45;16.80;99.90
9414;DHT22;4746;35.664;139.738;2023-11-21T09:59:15;16.80;99.90
9414;DHT22;4746;35.664;139.738;2023-11-21T10:01:43;16.80;99.90
9414;DHT22;4746;35.664;139.738;2023-11-21T10:04:13;16.80;99.90
9414;DHT22;4746;35.664;139.738;2023-11-21T10:06:42;16.80;99.90
9414;DHT22;4746;35.664;139.738;2023-11-21T10:09:14;16.80;99.90
9414;DHT22;4746;35.664;139.738;2023-11-21T10:11:43;16.80;99.90
9414;DHT22;4746;35.664;139.738;2023-11-21T10:14:12;16.80;99.90
9414;DHT22;4746;35.664;139.738;2023-11-21T10:16:41;16.80;99.90
9414;DHT22;4746;35.664;139.738;2023-11-21T10:19:13;16.80;99.90
9414;DHT22;4746;35.664;139.738;2023-11-21T10:21:43;16.80;99.90
9414;DHT22;4746;35.664;139.738;2023-11-21T10:24:10;16.70;99.90
9414;DHT22;4746;35.664;139.738;2023-11-21T10:26:39;16.70;99.90
9414;DHT22;4746;35.664;139.738;2023-11-21T10:29:08;16.70;99.90
9414;DHT22;4746;35.664;139.738;2023-11-21T10:31:38;16.60;99.90
9414;DHT22;4746;35.664;139.738;2023-11-21T10:34:16;16.50;99.90
9414;DHT22;4746;35.664;139.738;2023-11-21T10:36:46;16.50;99.90
9414;DHT22;4746;35.664;139.738;2023-11-21T10:39:20;16.40;99.90
9414;DHT22;4746;35.664;139.738;2023-11-21T10:41:50;16.30;99.90
9414;DHT22;4746;35.664;139.738;2023-11-21T10:44:18;16.20;99.90
9414;DHT22;4746;35.664;139.738;2023-11-21T10:46:55;16.10;99.90
9414;DHT22;4746;35.664;139.738;2023-11-21T10:49:25;16.00;99.90
9414;DHT22;4746;35.664;139.738;2023-11-21T10:51:56;16.00;99.90
9414;DHT22;4746;35.664;139.738;2023-11-21T10:54:25;16.00;99.90
9414;DHT22;4746;35.664;139.738;2023-11-21T10:57:00;15.90;99.90
9414;DHT22;4746;35.664;139.738;2023-11-21T10:59:31;15.90;99.90
9414;DHT22;4746;35.664;139.738;2023-11-21T11:01:59;15.80;99.90
9414;DHT22;4746;35.664;139.738;2023-11-21T11:04:30;15.80;99.90
9414;DHT22;4746;35.664;139.738;2023-11-21T11:07:03;15.80;99.90
9414;DHT22;4746;35.664;139.738;2023-11-21T11:09:35;15.70;99.90
9414;DHT22;4746;35.664;139.738;2023-11-21T11:12:04;15.70;99.90
9414;DHT22;4746;35.664;139.738;2023-11-21T11:14:33;15.70;99.90
9414;DHT22;4746;35.664;139.738;2023-11-21T11:17:01;15.70;99.90
9414;DHT22;4746;35.664;139.738;2023-11-21T11:19:31;15.60;99.90
9414;DHT22;4746;35.664;139.738;2023-11-21T11:22:19;15.60;99.90
9414;DHT22;4746;35.664;139.738;2023-11-21T11:24:58;15.60;99.90
9414;DHT22;4746;35.664;139.738;2023-11-21T11:27:48;15.50;99.90
9414;DHT22;4746;35.664;139.738;2023-11-21T11:36:47;15.50;99.90
9414;DHT22;4746;35.664;139.738;2023-11-21T11:39:36;15.40;99.90
9414;DHT22;4746;35.664;139.738;2023-11-21T11:42:16;15.40;99.90
9414;DHT22;4746;35.664;139.738;2023-11-21T11:44:48;15.40;99.90
9414;DHT22;4746;35.664;139.738;2023-11-21T11:50:08;15.30;99.90
9414;DHT22;4746;35.664;139.738;2023-11-21T11:52:47;15.30;99.90
9414;DHT22;4746;35.664;139.738;2023-11-21T11:55:18;15.30;99.90
9414;DHT22;4746;35.664;139.738;2023-11-21T11:57:52;15.30;99.90
9414;DHT22;4746;35.664;139.738;2023-11-21T12:02:58;15.30;99.90
9414;DHT22;4746;35.664;139.738;2023-11-21T12:05:32;15.20;99.90
9414;DHT22;4746;35.664;139.738;2023-11-21T12:08:11;15.20;99.90
9414;DHT22;4746;35.664;139.738;2023-11-21T12:10:39;15.20;99.90
9414;DHT22;4746;35.664;139.738;2023-11-21T12:13:10;15.20;99.90
9414;DHT22;4746;35.664;139.738;2023-11-21T12:15:40;15.20;99.90
9414;DHT22;4746;35.664;139.738;2023-11-21T12:18:08;15.20;99.90
9414;DHT22;4746;35.664;139.738;2023-11-21T12:20:36;15.10;99.90
9414;DHT22;4746;35.664;139.738;2023-11-21T12:23:07;15.10;99.90
9414;DHT22;4746;35.664;139.738;2023-11-21T12:25:40;15.10;99.90
9414;DHT22;4746;35.664;139.738;2023-11-21T12:28:08;15.10;99.90
9414;DHT22;4746;35.664;139.738;2023-11-21T12:30:36;15.10;99.90
9414;DHT22;4746;35.664;139.738;2023-11-21T12:33:04;15.10;99.90
9414;DHT22;4746;35.664;139.738;2023-11-21T12:35:35;15.10;99.90
9414;DHT22;4746;35.664;139.738;2023-11-21T12:38:05;15.10;99.90
9414;DHT22;4746;35.664;139.738;2023-11-21T12:40:35;15.10;99.90
9414;DHT22;4746;35.664;139.738;2023-11-21T12:43:02;15.00;99.90
9414;DHT22;4746;35.664;139.738;2023-11-21T12:45:34;15.00;99.90
9414;DHT22;4746;35.664;139.738;2023-11-21T12:48:05;15.00;99.90
9414;DHT22;4746;35.664;139.738;2023-11-21T12:50:38;15.00;99.90
9414;DHT22;4746;35.664;139.738;2023-11-21T12:53:12;15.00;99.90
9414;DHT22;4746;35.664;139.738;2023-11-21T12:55:40;15.00;99.90
9414;DHT22;4746;35.664;139.738;2023-11-21T12:58:09;15.00;99.90
9414;DHT22;4746;35.664;139.738;2023-11-21T13:00:40;15.00;99.90
9414;DHT22;4746;35.664;139.738;2023-11-21T13:03:11;14.90;99.90
9414;DHT22;4746;35.664;139.738;2023-11-21T13:05:44;15.00;99.90
9414;DHT22;4746;35.664;139.738;2023-11-21T13:08:17;14.90;99.90
9414;DHT22;4746;35.664;139.738;2023-11-21T13:10:54;15.00;99.90
9414;DHT22;4746;35.664;139.738;2023-11-21T13:13:23;15.00;99.90
9414;DHT22;4746;35.664;139.738;2023-11-21T13:15:55;15.00;99.90
9414;DHT22;4746;35.664;139.738;2023-11-21T13:18:28;14.90;99.90
9414;DHT22;4746;35.664;139.738;2023-11-21T13:20:59;14.90;99.90
9414;DHT22;4746;35.664;139.738;2023-11-21T13:23:34;14.90;99.90
9414;DHT22;4746;35.664;139.738;2023-11-21T13:26:04;14.90;99.90
9414;DHT22;4746;35.664;139.738;2023-11-21T13:28:41;14.90;99.90
9414;DHT22;4746;35.664;139.738;2023-11-21T13:31:12;14.90;99.90
9414;DHT22;4746;35.664;139.738;2023-11-21T13:33:53;14.90;99.90
9414;DHT22;4746;35.664;139.738;2023-11-21T13:36:23;14.90;99.90
9414;DHT22;4746;35.664;139.738;2023-11-21T13:38:52;14.90;99.90
9414;DHT22;4746;35.664;139.738;2023-11-21T13:41:20;14.90;99.90
9414;DHT22;4746;35.664;139.738;2023-11-21T13:43:54;14.80;99.90
9414;DHT22;4746;35.664;139.738;2023-11-21T13:46:31;14.80;99.90
9414;DHT22;4746;35.664;139.738;2023-11-21T13:49:03;14.80;99.90
9414;DHT22;4746;35.664;139.738;2023-11-21T13:51:36;14.80;99.90
9414;DHT22;4746;35.664;139.738;2023-11-21T13:54:12;14.80;99.90
9414;DHT22;4746;35.664;139.738;2023-11-21T13:56:40;14.80;99.90
9414;DHT22;4746;35.664;139.738;2023-11-21T13:59:11;14.80;99.90
9414;DHT22;4746;35.664;139.738;2023-11-21T14:01:55;14.80;99.90
9414;DHT22;4746;35.664;139.738;2023-11-21T14:04:38;14.70;99.90
9414;DHT22;4746;35.664;139.738;2023-11-21T14:07:21;14.70;99.90
9414;DHT22;4746;35.664;139.738;2023-11-21T14:10:12;14.70;99.90
9414;DHT22;4746;35.664;139.738;2023-11-21T14:12:42;14.60;99.90
9414;DHT22;4746;35.664;139.738;2023-11-21T14:15:11;14.60;99.90
9414;DHT22;4746;35.664;139.738;2023-11-21T14:17:45;14.60;99.90
9414;DHT22;4746;35.664;139.738;2023-11-21T14:20:13;14.60;99.90
9414;DHT22;4746;35.664;139.738;2023-11-21T14:22:47;14.60;99.90
9414;DHT22;4746;35.664;139.738;2023-11-21T14:25:15;14.50;99.90
9414;DHT22;4746;35.664;139.738;2023-11-21T14:27:44;14.50;99.90
9414;DHT22;4746;35.664;139.738;2023-11-21T14:30:11;14.50;99.90
9414;DHT22;4746;35.664;139.738;2023-11-21T14:32:39;14.40;99.90
9414;DHT22;4746;35.664;139.738;2023-11-21T14:35:08;14.30;99.90
9414;DHT22;4746;35.664;139.738;2023-11-21T14:37:37;14.30;99.90
9414;DHT22;4746;35.664;139.738;2023-11-21T14:40:06;14.30;99.90
9414;DHT22;4746;35.664;139.738;2023-11-21T14:42:34;14.20;99.90
9414;DHT22;4746;35.664;139.738;2023-11-21T14:45:05;14.10;99.90
9414;DHT22;4746;35.664;139.738;2023-11-21T14:47:34;14.00;99.90
9414;DHT22;4746;35.664;139.738;2023-11-21T14:50:08;14.00;99.90
9414;DHT22;4746;35.664;139.738;2023-11-21T14:53:05;13.90;99.90
9414;DHT22;4746;35.664;139.738;2023-11-21T14:55:34;13.80;99.90
9414;DHT22;4746;35.664;139.738;2023-11-21T14:58:18;13.80;99.90
9414;DHT22;4746;35.664;139.738;2023-11-21T15:00:59;13.70;99.90
9414;DHT22;4746;35.664;139.738;2023-11-21T15:03:29;13.70;99.90
9414;DHT22;4746;35.664;139.738;2023-11-21T15:06:00;13.70;99.90
9414;DHT22;4746;35.664;139.738;2023-11-21T15:08:54;13.60;99.90
9414;DHT22;4746;35.664;139.738;2023-11-21T15:11:35;13.60;99.90
9414;DHT22;4746;35.664;139.738;2023-11-21T15:14:04;13.60;99.90
9414;DHT22;4746;35.664;139.738;2023-11-21T15:16:35;13.60;99.90
9414;DHT22;4746;35.664;139.738;2023-11-21T15:19:09;13.50;99.90
9414;DHT22;4746;35.664;139.738;2023-11-21T15:21:44;13.50;99.90
9414;DHT22;4746;35.664;139.738;2023-11-21T15:24:12;13.50;99.90
9414;DHT22;4746;35.664;139.738;2023-11-21T15:26:40;13.50;99.90
9414;DHT22;4746;35.664;139.738;2023-11-21T15:29:07;13.50;99.90
9414;DHT22;4746;35.664;139.738;2023-11-21T15:31:35;13.50;99.90
9414;DHT22;4746;35.664;139.738;2023-11-21T15:34:04;13.40;99.90
9414;DHT22;4746;35.664;139.738;2023-11-21T15:36:32;13.40;99.90
9414;DHT22;4746;35.664;139.738;2023-11-21T15:38:59;13.40;99.90
9414;DHT22;4746;35.664;139.738;2023-11-21T15:41:27;13.40;99.90
9414;DHT22;4746;35.664;139.738;2023-11-21T15:43:54;13.30;99.90
9414;DHT22;4746;35.664;139.738;2023-11-21T15:46:22;13.30;99.90
9414;DHT22;4746;35.664;139.738;2023-11-21T15:48:50;13.30;99.90
9414;DHT22;4746;35.664;139.738;2023-11-21T15:51:20;13.30;99.90
9414;DHT22;4746;35.664;139.738;2023-11-21T15:53:48;13.30;99.90
9414;DHT22;4746;35.664;139.738;2023-11-21T15:56:15;13.20;99.90
9414;DHT22;4746;35.664;139.738;2023-11-21T15:58:44;13.20;99.90